createdAt,value
2023-04-01T00:00:00.934Z,81.52
2023-04-01T00:02:27.527Z,81.30
2023-04-01T00:04:53.992Z,81.11
2023-04-01T00:07:20.615Z,80.88
2023-04-01T00:09:47.062Z,80.58
2023-04-01T00:12:13.569Z,81.65
2023-04-01T00:14:40.154Z,82.30
2023-04-01T00:17:06.586Z,81.27
2023-04-01T00:19:33.002Z,81.84
2023-04-01T00:21:59.572Z,81.80
2023-04-01T00:24:25.970Z,81.40
2023-04-01T00:26:52.449Z,82.21
2023-04-01T00:29:19.062Z,82.22
2023-04-01T00:31:45.829Z,81.96
2023-04-01T00:34:12.920Z,82.16
2023-04-01T00:36:39.622Z,82.47
2023-04-01T00:39:06.199Z,81.49
2023-04-01T00:41:32.719Z,81.87
2023-04-01T00:44:21.419Z,81.59
2023-04-01T00:46:47.976Z,80.72
2023-04-01T00:49:15.247Z,82.21
2023-04-01T00:51:42.070Z,81.33
2023-04-01T00:54:08.578Z,82.13
2023-04-01T00:56:35.794Z,81.96
2023-04-01T00:59:06.020Z,81.08
2023-04-01T01:01:32.535Z,81.84
2023-04-01T01:03:59.085Z,82.31
2023-04-01T01:06:44.212Z,81.99
2023-04-01T01:09:19.912Z,81.12
2023-04-01T01:11:51.531Z,82.06
2023-04-01T01:14:20.928Z,82.04
2023-04-01T01:16:49.527Z,82.47
2023-04-01T01:19:18.888Z,81.80
2023-04-01T01:21:50.730Z,81.40
2023-04-01T01:24:19.603Z,82.55
2023-04-01T01:26:56.452Z,81.98
2023-04-01T01:29:35.310Z,81.57
2023-04-01T01:32:07.687Z,82.79
2023-04-01T01:34:52.315Z,82.96
2023-04-01T01:37:18.993Z,82.54
2023-04-01T01:39:47.327Z,82.06
2023-04-01T01:42:14.506Z,82.74
2023-04-01T01:44:41.007Z,83.34
2023-04-01T01:47:07.438Z,82.93
2023-04-01T01:49:34.150Z,83.36
2023-04-01T01:52:00.595Z,83.13
2023-04-01T01:54:27.186Z,83.66
2023-04-01T01:56:57.086Z,83.53
2023-04-01T01:59:23.660Z,83.27
2023-04-01T02:01:50.816Z,84.39
2023-04-01T02:04:17.405Z,84.24
2023-04-01T02:06:45.926Z,85.02
2023-04-01T02:09:12.412Z,83.92
2023-04-01T02:11:41.824Z,84.85
2023-04-01T02:14:31.221Z,84.44
2023-04-01T02:17:03.846Z,85.06
2023-04-01T02:19:40.290Z,84.56
2023-04-01T02:22:07.009Z,84.78
2023-04-01T02:24:33.432Z,85.61
2023-04-01T02:26:59.969Z,85.72
2023-04-01T02:29:26.476Z,85.15
2023-04-01T02:31:53.055Z,85.82
2023-04-01T02:34:19.916Z,86.79
2023-04-01T02:36:46.416Z,86.48
2023-04-01T02:39:13.132Z,86.58
2023-04-01T02:41:40.481Z,85.96
2023-04-01T02:44:07.100Z,86.31
2023-04-01T02:46:33.696Z,85.59
2023-04-01T02:49:00.208Z,86.20
2023-04-01T02:51:26.920Z,85.76
2023-04-01T02:53:53.419Z,86.15
2023-04-01T02:56:19.894Z,86.03
2023-04-01T02:58:46.775Z,86.47
2023-04-01T03:01:13.301Z,86.06
2023-04-01T03:03:39.818Z,86.81
2023-04-01T03:06:09.938Z,86.31
2023-04-01T03:08:36.436Z,86.74
2023-04-01T03:11:03.081Z,85.86
2023-04-01T03:13:29.554Z,85.41
2023-04-01T03:15:56.130Z,85.46
2023-04-01T03:18:22.578Z,85.64
2023-04-01T03:20:49.286Z,86.56
2023-04-01T03:23:15.742Z,86.06
2023-04-01T03:25:42.187Z,85.12
2023-04-01T03:28:08.572Z,86.09
2023-04-01T03:30:35.044Z,85.25
2023-04-01T03:33:01.487Z,84.81
2023-04-01T03:35:27.960Z,85.31
2023-04-01T03:37:54.643Z,85.23
2023-04-01T03:40:21.487Z,86.11
2023-04-01T03:42:48.164Z,85.91
2023-04-01T03:45:14.620Z,86.07
2023-04-01T03:47:41.096Z,84.64
2023-04-01T03:50:07.738Z,84.04
2023-04-01T03:52:34.393Z,85.39
2023-04-01T03:55:01.373Z,85.21
2023-04-01T03:57:28.126Z,84.48
2023-04-01T03:59:54.491Z,84.89
2023-04-01T04:02:21.021Z,85.87
2023-04-01T04:04:47.574Z,86.49
2023-04-01T04:07:14.064Z,86.06
2023-04-01T04:09:40.463Z,86.70
2023-04-01T04:12:07.175Z,86.48
2023-04-01T04:14:33.609Z,86.78
2023-04-01T04:17:00.125Z,85.58
2023-04-01T04:19:26.630Z,85.31
2023-04-01T04:21:53.135Z,86.61
2023-04-01T04:24:19.619Z,86.72
2023-04-01T04:26:46.024Z,86.59
2023-04-01T04:29:12.500Z,86.19
2023-04-01T04:31:38.982Z,85.33
2023-04-01T04:34:05.526Z,85.63
2023-04-01T04:36:31.992Z,86.33
2023-04-01T04:38:58.445Z,85.23
2023-04-01T04:41:24.838Z,85.03
2023-04-01T04:43:51.867Z,85.61
2023-04-01T04:46:18.454Z,86.31
2023-04-01T04:48:44.995Z,86.81
2023-04-01T04:51:14.227Z,88.16
2023-04-01T04:53:40.673Z,88.06
2023-04-01T04:56:07.223Z,87.45
2023-04-01T04:58:33.720Z,86.91
2023-04-01T05:01:00.280Z,87.18
2023-04-01T05:03:26.950Z,86.67
2023-04-01T05:05:54.044Z,86.57
2023-04-01T05:08:20.588Z,86.30
2023-04-01T05:10:47.095Z,86.40
2023-04-01T05:13:13.616Z,86.03
2023-04-01T05:15:40.066Z,85.29
2023-04-01T05:18:06.512Z,85.37
2023-04-01T05:20:33.162Z,84.76
2023-04-01T05:22:59.721Z,85.71
2023-04-01T05:25:26.104Z,85.54
2023-04-01T05:27:52.696Z,84.98
2023-04-01T05:30:19.127Z,84.39
2023-04-01T05:32:45.607Z,85.20
2023-04-01T05:35:12.231Z,84.16
2023-04-01T05:37:38.731Z,84.47
2023-04-01T05:40:05.489Z,84.72
2023-04-01T05:42:31.988Z,83.97
2023-04-01T05:44:58.449Z,84.07
2023-04-01T05:47:25.018Z,84.09
2023-04-01T05:49:51.484Z,83.60
2023-04-01T05:52:17.966Z,83.62
2023-04-01T05:54:44.446Z,82.62
2023-04-01T05:57:10.984Z,82.75
2023-04-01T05:59:37.508Z,82.48
2023-04-01T06:02:04.005Z,82.99
2023-04-01T06:04:33.919Z,82.74
2023-04-01T06:07:00.466Z,82.83
2023-04-01T06:09:30.640Z,82.41
2023-04-01T06:12:03.362Z,81.08
2023-04-01T06:14:42.044Z,81.56
2023-04-01T06:17:20.911Z,81.11
2023-04-01T06:19:47.385Z,81.87
2023-04-01T06:22:16.678Z,80.66
2023-04-01T06:24:45.634Z,80.16
2023-04-01T06:27:16.488Z,80.44
2023-04-01T06:29:52.561Z,79.94
2023-04-01T06:32:19.057Z,79.10
2023-04-01T06:35:04.980Z,79.29
2023-04-01T06:37:43.674Z,80.08
2023-04-01T06:40:29.133Z,79.65
2023-04-01T06:43:14.468Z,79.45
2023-04-01T06:45:43.375Z,80.06
2023-04-01T06:48:25.264Z,80.02
2023-04-01T06:51:10.410Z,78.56
2023-04-01T06:53:36.949Z,78.63
2023-04-01T06:56:05.110Z,79.21
2023-04-01T06:58:50.321Z,79.58
2023-04-01T07:01:22.783Z,79.25
2023-04-01T07:03:51.066Z,78.67
2023-04-01T07:06:24.043Z,79.27
2023-04-01T07:08:50.470Z,79.40
2023-04-01T07:11:21.832Z,78.98
2023-04-01T07:13:51.294Z,78.06
2023-04-01T07:16:30.285Z,77.11
2023-04-01T07:19:07.709Z,78.07
2023-04-01T07:21:41.550Z,76.19
2023-04-01T07:24:11.350Z,76.19
2023-04-01T07:26:37.827Z,75.82
2023-04-01T07:29:06.003Z,75.08
2023-04-01T07:31:45.723Z,75.65
2023-04-01T07:34:12.172Z,74.61
2023-04-01T07:36:57.449Z,73.71
2023-04-01T07:39:26.641Z,72.07
2023-04-01T07:41:55.909Z,72.76
2023-04-01T07:44:26.748Z,70.33
2023-04-01T07:47:02.078Z,68.92
2023-04-01T07:50:07.359Z,65.06
2023-04-01T07:52:38.412Z,62.26
2023-04-01T07:55:19.225Z,61.06
2023-04-01T07:57:51.898Z,59.43
2023-04-01T08:00:21.952Z,59.98
2023-04-01T08:02:57.674Z,59.22
2023-04-01T08:05:31.102Z,58.07
2023-04-01T08:08:16.621Z,58.00
2023-04-01T08:10:51.048Z,56.49
2023-04-01T08:13:17.809Z,55.26
2023-04-01T08:15:53.288Z,56.10
2023-04-01T08:18:39.043Z,57.66
2023-04-01T08:21:07.062Z,58.71
2023-04-01T08:23:34.121Z,60.88
2023-04-01T08:26:05.968Z,60.83
2023-04-01T08:28:32.430Z,59.19
2023-04-01T08:31:00.272Z,59.36
2023-04-01T08:33:29.938Z,57.25
2023-04-01T08:35:59.424Z,54.65
2023-04-01T08:38:28.442Z,54.37
2023-04-01T08:40:54.858Z,51.72
2023-04-01T08:43:40.345Z,51.11
2023-04-01T08:46:12.814Z,52.12
2023-04-01T08:48:54.466Z,54.15
2023-04-01T08:51:39.761Z,55.98
2023-04-01T08:54:06.183Z,59.15
2023-04-01T08:56:35.163Z,59.83
2023-04-01T08:59:20.553Z,61.53
2023-04-01T09:02:06.067Z,62.25
2023-04-01T09:04:51.616Z,64.22
2023-04-01T09:07:30.173Z,62.44
2023-04-01T09:10:00.995Z,61.88
2023-04-01T09:12:46.189Z,64.63
2023-04-01T09:15:24.646Z,62.40
2023-04-01T09:18:07.476Z,63.61
2023-04-01T09:20:52.994Z,63.82
2023-04-01T09:23:22.292Z,63.77
2023-04-01T09:26:05.183Z,64.23
2023-04-01T09:28:38.698Z,63.61
2023-04-01T09:31:11.611Z,62.95
2023-04-01T09:33:56.944Z,62.62
2023-04-01T09:36:42.098Z,61.75
2023-04-01T09:39:26.877Z,60.32
2023-04-01T09:42:12.078Z,62.01
2023-04-01T09:44:42.950Z,61.81
2023-04-01T09:47:12.680Z,57.83
2023-04-01T09:49:39.441Z,60.05
2023-04-01T09:52:19.203Z,60.73
2023-04-01T09:54:50.254Z,62.42
2023-04-01T09:57:35.788Z,64.38
2023-04-01T10:00:07.767Z,63.09
2023-04-01T10:02:37.478Z,64.88
2023-04-01T10:05:16.061Z,64.96
2023-04-01T10:08:01.270Z,62.97
2023-04-01T10:10:46.577Z,63.86
2023-04-01T10:13:19.234Z,64.67
2023-04-01T10:15:49.344Z,64.72
2023-04-01T10:18:27.805Z,63.51
2023-04-01T10:21:12.760Z,64.61
2023-04-01T10:23:39.226Z,64.54
2023-04-01T10:26:17.697Z,66.35
2023-04-01T10:29:02.738Z,64.62
2023-04-01T10:31:34.317Z,63.85
2023-04-01T10:34:23.569Z,65.28
2023-04-01T10:36:53.765Z,65.53
2023-04-01T10:39:38.642Z,66.93
2023-04-01T10:42:10.972Z,65.88
2023-04-01T10:44:37.433Z,66.45
2023-04-01T10:47:14.439Z,68.23
2023-04-01T10:49:49.967Z,66.05
2023-04-01T10:52:35.056Z,65.54
2023-04-01T10:55:20.052Z,65.60
2023-04-01T10:57:52.348Z,67.60
2023-04-01T11:00:27.777Z,67.99
2023-04-01T11:03:02.101Z,69.10
2023-04-01T11:05:31.795Z,67.81
2023-04-01T11:08:06.505Z,69.90
2023-04-01T11:10:50.381Z,68.60
2023-04-01T11:13:30.082Z,70.50
2023-04-01T11:16:13.117Z,69.27
2023-04-01T11:18:52.203Z,69.59
2023-04-01T11:21:21.643Z,69.90
2023-04-01T11:24:03.838Z,68.75
2023-04-01T11:26:34.015Z,68.79
2023-04-01T11:29:04.439Z,69.00
2023-04-01T11:31:30.856Z,68.87
2023-04-01T11:33:57.279Z,68.82
2023-04-01T11:36:30.476Z,68.04
2023-04-01T11:39:01.918Z,69.95
2023-04-01T11:42:00.888Z,68.51
2023-04-01T11:44:27.830Z,71.34
2023-04-01T11:47:00.470Z,71.95
2023-04-01T11:49:47.209Z,70.99
2023-04-01T11:52:19.677Z,72.80
2023-04-01T11:55:01.411Z,73.22
2023-04-01T11:57:39.894Z,74.33
2023-04-01T12:00:18.603Z,75.43
2023-04-01T12:02:52.848Z,76.40
2023-04-01T12:05:32.494Z,78.33
2023-04-01T12:08:08.944Z,78.66
2023-04-01T12:10:54.677Z,80.18
2023-04-01T12:13:28.449Z,82.32
2023-04-01T12:15:54.953Z,83.61
2023-04-01T12:18:39.686Z,84.56
2023-04-01T12:21:21.561Z,83.71
2023-04-01T12:23:58.591Z,83.73
2023-04-01T12:26:34.538Z,82.27
2023-04-01T12:29:07.830Z,83.93
2023-04-01T12:31:43.831Z,83.86
2023-04-01T12:34:36.509Z,84.77
2023-04-01T12:37:06.445Z,86.29
2023-04-01T12:39:45.412Z,85.92
2023-04-01T12:42:25.343Z,86.61
2023-04-01T12:44:51.866Z,86.86
2023-04-01T12:47:31.622Z,85.84
2023-04-01T12:50:17.070Z,87.33
2023-04-01T12:52:49.470Z,86.18
2023-04-01T12:55:34.412Z,86.53
2023-04-01T12:58:03.716Z,85.94
2023-04-01T13:00:45.556Z,85.92
2023-04-01T13:03:11.997Z,87.21
2023-04-01T13:05:41.113Z,87.96
2023-04-01T13:08:07.455Z,87.75
2023-04-01T13:10:39.732Z,87.27
2023-04-01T13:13:26.362Z,88.21
2023-04-01T13:15:52.861Z,88.91
2023-04-01T13:18:25.121Z,87.62
2023-04-01T13:20:57.768Z,89.55
2023-04-01T13:23:24.184Z,89.20
2023-04-01T13:26:07.024Z,88.90
2023-04-01T13:28:53.121Z,89.64
2023-04-01T13:31:31.717Z,91.79
2023-04-01T13:34:27.507Z,91.44
2023-04-01T13:36:56.589Z,91.28
2023-04-01T13:39:41.787Z,89.40
2023-04-01T13:42:10.954Z,89.57
2023-04-01T13:44:48.216Z,89.93
2023-04-01T13:47:33.142Z,90.05
2023-04-01T13:50:18.625Z,90.89
2023-04-01T13:53:01.301Z,90.36
2023-04-01T13:55:27.790Z,91.36
2023-04-01T13:58:17.131Z,91.40
2023-04-01T14:00:45.762Z,88.97
2023-04-01T14:03:31.126Z,90.34
2023-04-01T14:06:06.722Z,91.01
2023-04-01T14:08:59.454Z,89.19
2023-04-01T14:11:40.711Z,90.83
2023-04-01T14:14:17.521Z,90.89
2023-04-01T14:16:49.861Z,90.74
2023-04-01T14:19:32.220Z,91.68
2023-04-01T14:21:58.698Z,90.15
2023-04-01T14:24:32.683Z,90.92
2023-04-01T14:27:05.269Z,90.99
2023-04-01T14:29:35.854Z,89.64
2023-04-01T14:32:02.273Z,90.26
2023-04-01T14:34:44.925Z,90.13
2023-04-01T14:37:16.909Z,90.08
2023-04-01T14:39:55.850Z,90.66
2023-04-01T14:42:28.112Z,89.81
2023-04-01T14:44:54.527Z,89.05
2023-04-01T14:47:39.967Z,89.22
2023-04-01T14:50:07.593Z,89.30
2023-04-01T14:52:34.768Z,89.66
2023-04-01T14:55:01.268Z,89.72
2023-04-01T14:57:28.616Z,89.16
2023-04-01T15:00:00.340Z,88.95
2023-04-01T15:02:36.859Z,89.50
2023-04-01T15:05:04.150Z,88.92
2023-04-01T15:07:36.525Z,88.71
2023-04-01T15:10:21.879Z,89.12
2023-04-01T15:13:14.724Z,90.04
2023-04-01T15:15:41.215Z,88.88
2023-04-01T15:18:08.952Z,88.76
2023-04-01T15:20:35.567Z,88.79
2023-04-01T15:23:13.196Z,89.43
2023-04-01T15:25:43.072Z,88.61
2023-04-01T15:28:09.486Z,88.46
2023-04-01T15:30:50.156Z,89.51
2023-04-01T15:33:29.973Z,88.33
2023-04-01T15:35:59.460Z,87.59
2023-04-01T15:38:32.084Z,88.54
2023-04-01T15:41:02.207Z,89.83
2023-04-01T15:43:31.538Z,88.87
2023-04-01T15:46:10.132Z,90.42
2023-04-01T15:48:46.971Z,91.11
2023-04-01T15:51:25.945Z,90.24
2023-04-01T15:53:58.330Z,88.22
2023-04-01T15:56:36.673Z,89.54
2023-04-01T15:59:08.921Z,89.17
2023-04-01T16:01:40.569Z,89.91
2023-04-01T16:04:25.040Z,88.58
2023-04-01T16:07:05.068Z,88.26
2023-04-01T16:09:50.580Z,88.29
2023-04-01T16:12:17.067Z,88.47
2023-04-01T16:14:54.474Z,90.54
2023-04-01T16:17:20.935Z,90.11
2023-04-01T16:19:50.220Z,90.33
2023-04-01T16:22:55.030Z,89.32
2023-04-01T16:25:26.500Z,89.75
2023-04-01T16:27:56.458Z,90.33
2023-04-01T16:30:39.182Z,90.62
2023-04-01T16:33:12.872Z,91.49
2023-04-01T16:35:44.854Z,90.79
2023-04-01T16:38:25.514Z,92.07
2023-04-01T16:41:00.321Z,91.91
2023-04-01T16:43:31.867Z,90.91
2023-04-01T16:45:58.287Z,92.27
2023-04-01T16:48:28.840Z,92.78
2023-04-01T16:50:56.619Z,93.94
2023-04-01T16:53:31.949Z,93.89
2023-04-01T16:56:03.909Z,93.25
2023-04-01T16:58:37.283Z,92.73
2023-04-01T17:01:05.314Z,94.57
2023-04-01T17:03:37.919Z,94.09
2023-04-01T17:06:08.292Z,92.08
2023-04-01T17:08:43.767Z,92.61
2023-04-01T17:11:13.249Z,92.69
2023-04-01T17:13:47.116Z,92.51
2023-04-01T17:16:25.968Z,92.07
2023-04-01T17:19:01.609Z,91.60
2023-04-01T17:21:30.871Z,92.40
2023-04-01T17:24:20.620Z,92.70
2023-04-01T17:26:47.054Z,92.04
2023-04-01T17:29:39.612Z,91.16
2023-04-01T17:32:08.710Z,91.94
2023-04-01T17:34:41.392Z,91.83
2023-04-01T17:37:20.949Z,91.55
2023-04-01T17:39:49.955Z,92.93
2023-04-01T17:42:17.479Z,92.65
2023-04-01T17:44:50.526Z,92.70
2023-04-01T17:47:21.876Z,93.55
2023-04-01T17:49:51.056Z,92.82
2023-04-01T17:52:32.779Z,92.94
2023-04-01T17:55:17.995Z,94.11
2023-04-01T17:57:47.078Z,92.91
2023-04-01T18:00:16.497Z,93.13
2023-04-01T18:02:43.018Z,93.64
2023-04-01T18:05:12.462Z,93.77
2023-04-01T18:07:57.092Z,94.63
2023-04-01T18:10:25.123Z,93.74
2023-04-01T18:13:05.944Z,94.13
2023-04-01T18:15:32.362Z,94.32
2023-04-01T18:18:01.780Z,95.25
2023-04-01T18:20:46.673Z,95.60
2023-04-01T18:23:28.396Z,94.73
2023-04-01T18:25:55.457Z,94.22
2023-04-01T18:28:21.866Z,94.02
2023-04-01T18:31:17.757Z,94.25
2023-04-01T18:33:53.321Z,94.92
2023-04-01T18:36:38.507Z,94.38
2023-04-01T18:39:23.094Z,93.83
2023-04-01T18:42:18.983Z,93.42
2023-04-01T18:44:48.141Z,94.51
2023-04-01T18:47:33.557Z,94.33
2023-04-01T18:50:07.393Z,94.50
2023-04-01T18:52:35.135Z,94.65
2023-04-01T18:55:01.578Z,95.75
2023-04-01T18:57:28.315Z,96.00
2023-04-01T18:59:56.444Z,95.21
2023-04-01T19:02:28.284Z,95.58
2023-04-01T19:05:01.479Z,95.77
2023-04-01T19:07:40.047Z,95.83
2023-04-01T19:10:17.150Z,95.74
2023-04-01T19:12:46.606Z,94.90
2023-04-01T19:15:15.698Z,94.85
2023-04-01T19:17:54.310Z,95.13
2023-04-01T19:20:42.181Z,94.40
2023-04-01T19:23:15.060Z,95.13
2023-04-01T19:25:59.911Z,95.05
2023-04-01T19:28:26.366Z,94.80
2023-04-01T19:30:55.925Z,94.64
2023-04-01T19:33:31.297Z,93.96
2023-04-01T19:36:16.202Z,93.68
2023-04-01T19:38:44.058Z,93.50
2023-04-01T19:41:14.274Z,94.33
2023-04-01T19:43:45.299Z,95.01
2023-04-01T19:46:11.716Z,95.15
2023-04-01T19:48:45.842Z,94.82
2023-04-01T19:51:15.340Z,94.63
2023-04-01T19:53:47.193Z,94.20
2023-04-01T19:56:13.596Z,94.36
2023-04-01T19:58:55.036Z,93.97
2023-04-01T20:01:45.312Z,93.16
2023-04-01T20:04:14.142Z,94.03
2023-04-01T20:07:01.942Z,93.90
2023-04-01T20:09:28.371Z,93.67
2023-04-01T20:11:54.824Z,93.15
2023-04-01T20:14:24.209Z,93.06
2023-04-01T20:17:01.330Z,92.59
2023-04-01T20:19:34.361Z,92.67
2023-04-01T20:22:00.838Z,93.52
2023-04-01T20:24:27.258Z,92.70
2023-04-01T20:27:12.369Z,92.34
2023-04-01T20:29:38.757Z,92.48
2023-04-01T20:32:17.649Z,92.17
2023-04-01T20:34:46.932Z,91.05
2023-04-01T20:37:32.299Z,92.08
2023-04-01T20:39:58.802Z,91.38
2023-04-01T20:42:30.184Z,90.58
2023-04-01T20:45:01.839Z,91.23
2023-04-01T20:47:46.289Z,90.68
2023-04-01T20:50:20.097Z,90.94
2023-04-01T20:52:57.128Z,91.23
2023-04-01T20:55:42.364Z,90.40
2023-04-01T20:58:22.549Z,90.13
2023-04-01T21:00:58.597Z,91.09
2023-04-01T21:03:43.587Z,91.31
2023-04-01T21:06:16.393Z,90.18
2023-04-01T21:08:54.848Z,90.25
2023-04-01T21:11:24.228Z,91.32
2023-04-01T21:14:10.880Z,90.71
2023-04-01T21:17:16.288Z,90.88
2023-04-01T21:19:42.690Z,90.23
2023-04-01T21:22:18.461Z,91.33
2023-04-01T21:24:50.864Z,91.42
2023-04-01T21:27:17.278Z,90.66
2023-04-01T21:29:46.786Z,90.47
2023-04-01T21:32:19.234Z,90.99
2023-04-01T21:34:52.841Z,90.86
2023-04-01T21:37:22.142Z,91.71
2023-04-01T21:40:02.035Z,90.37
2023-04-01T21:42:40.924Z,91.21
2023-04-01T21:45:10.394Z,90.32
2023-04-01T21:47:36.817Z,90.95
2023-04-01T21:50:23.556Z,90.42
2023-04-01T21:53:19.520Z,90.31
2023-04-01T21:55:55.131Z,90.41
2023-04-01T21:58:39.577Z,89.70
2023-04-01T22:01:21.783Z,89.99
2023-04-01T22:03:52.017Z,90.38
2023-04-01T22:06:18.458Z,90.58
2023-04-01T22:08:50.841Z,89.38
2023-04-01T22:11:35.926Z,89.71
2023-04-01T22:14:04.080Z,89.88
2023-04-01T22:16:48.399Z,90.04
2023-04-01T22:19:21.898Z,90.53
2023-04-01T22:21:51.506Z,91.18
2023-04-01T22:24:25.838Z,90.74
2023-04-01T22:26:59.337Z,90.28
2023-04-01T22:29:31.939Z,90.39
2023-04-01T22:32:06.434Z,90.48
2023-04-01T22:34:38.631Z,90.09
2023-04-01T22:37:23.743Z,90.58
2023-04-01T22:40:12.181Z,90.08
2023-04-01T22:42:43.026Z,90.06
2023-04-01T22:45:28.396Z,90.29
2023-04-01T22:48:13.604Z,90.02
2023-04-01T22:50:45.891Z,89.49
2023-04-01T22:53:12.297Z,89.54
2023-04-01T22:55:39.320Z,89.79
2023-04-01T22:58:26.105Z,88.38
2023-04-01T23:00:53.558Z,89.68
2023-04-01T23:03:20.483Z,88.71
2023-04-01T23:05:59.972Z,89.35
2023-04-01T23:08:39.861Z,88.99
2023-04-01T23:11:07.644Z,89.53
2023-04-01T23:13:38.832Z,88.95
2023-04-01T23:16:05.424Z,89.05
2023-04-01T23:19:04.464Z,88.18
2023-04-01T23:21:38.572Z,88.79
2023-04-01T23:24:17.277Z,88.90
2023-04-01T23:26:46.440Z,88.63
2023-04-01T23:29:16.638Z,89.01
2023-04-01T23:31:43.659Z,88.11
2023-04-01T23:34:10.208Z,88.72
2023-04-01T23:36:38.388Z,88.52
2023-04-01T23:39:06.306Z,87.80
2023-04-01T23:41:32.736Z,87.59
2023-04-01T23:44:10.155Z,88.67
2023-04-01T23:46:36.677Z,87.60
2023-04-01T23:49:03.430Z,87.93
2023-04-01T23:51:30.580Z,87.79
2023-04-01T23:53:57.873Z,88.38
2023-04-01T23:56:24.276Z,88.48
2023-04-01T23:58:51.466Z,88.78
